Time;durP1;ratioP1;P1;durP2;ratioP2;P2;SDS_P1;SDS_P2;PMS_P1;PMS_P2;Temp;Humidity;BMP_temperature;BMP_pressure;BME280_temperature;BME280_humidity;BME280_pressure;Samples;Min_cycle;Max_cycle;Signal;HPM_P1;HPM_P2
2022/05/01 00:00:10;;;;;;;0.50;0.50;;;20.80;38.30;;;24.56;25.16;102122.47;6215693;23;20040;-15
2022/05/01 00:02:36;;;;;;;0.50;0.50;;;20.80;38.30;;;24.53;25.30;102117.25;6215764;23;20047;-15
2022/05/01 00:05:02;;;;;;;0.52;0.52;;;20.80;38.30;;;24.53;25.15;102118.13;6216204;23;20013;-15
2022/05/01 00:07:28;;;;;;;0.80;0.73;;;20.80;38.30;;;24.53;25.28;102114.59;6215376;23;20015;-16
2022/05/01 00:09:54;;;;;;;0.52;0.52;;;20.80;38.30;;;24.59;25.22;102130.28;6215747;23;20024;-15
2022/05/01 00:12:20;;;;;;;0.57;0.50;;;20.80;38.30;;;24.57;25.23;102122.38;6215651;23;20024;-15
2022/05/01 00:14:45;;;;;;;0.70;0.70;;;20.80;38.30;;;24.59;25.27;102119.59;6216447;23;20016;-15
2022/05/01 00:17:12;;;;;;;0.60;0.60;;;20.80;38.30;;;24.58;25.32;102115.22;6216086;23;20017;-16
2022/05/01 00:19:37;;;;;;;0.50;0.50;;;20.80;38.30;;;24.57;25.22;102113.47;6216019;23;20037;-16
2022/05/01 00:22:03;;;;;;;0.77;0.75;;;20.80;38.30;;;24.54;25.34;102101.13;6215593;23;20008;-16
2022/05/01 00:24:29;;;;;;;0.60;0.60;;;20.80;38.30;;;24.52;25.43;102092.31;6216306;23;20439;-15
2022/05/01 00:26:55;;;;;;;0.70;0.60;;;20.80;38.30;;;24.56;25.14;102107.28;6215710;23;20015;-15
2022/05/01 00:29:21;;;;;;;1.45;1.13;;;20.80;38.30;;;24.56;25.24;102101.94;6213707;23;20028;-15
2022/05/01 00:31:47;;;;;;;0.65;0.50;;;20.80;38.30;;;24.57;25.32;102108.13;6215758;23;20016;-15
2022/05/01 00:36:58;;;;;;;1.63;0.70;;;20.80;38.30;;;24.53;25.38;102094.03;6216030;23;20088;-15
2022/05/01 00:39:24;;;;;;;0.50;0.50;;;20.80;38.30;;;24.50;25.17;102094.22;6215511;23;20346;-15
2022/05/01 00:41:50;;;;;;;0.50;0.50;;;20.80;38.30;;;24.54;25.37;102106.47;6215628;23;20023;-16
2022/05/01 00:44:21;;;;;;;0.70;0.70;;;20.80;38.30;;;24.55;25.18;102108.22;6216333;23;20013;-16
2022/05/01 00:46:50;;;;;;;;;;;20.80;38.30;;;24.60;25.08;102092.75;6216233;23;20008;-16
2022/05/01 00:49:25;;;;;;;0.65;0.65;;;20.80;38.30;;;24.58;25.06;102109.88;6215338;23;19995;-15
2022/05/01 00:51:57;;;;;;;0.98;0.80;;;20.80;38.30;;;24.50;25.03;102096.91;6214930;23;20071;-15
2022/05/01 00:54:29;;;;;;;0.80;0.80;;;20.80;38.30;;;24.49;25.19;102088.97;6214699;23;20019;-15
2022/05/01 00:57:02;;;;;;;0.55;0.55;;;20.80;38.30;;;24.49;25.32;102095.19;6216263;23;20009;-15
2022/05/01 00:59:30;;;;;;;0.82;0.65;;;20.80;38.30;;;24.50;25.33;102096.03;6215617;23;20312;-15
2022/05/01 01:01:56;;;;;;;0.85;0.80;;;20.80;38.30;;;24.54;25.23;102109.16;6215509;23;20088;-15
2022/05/01 01:04:22;;;;;;;0.70;0.70;;;20.80;38.30;;;24.50;25.09;102101.38;6215512;23;20062;-15
2022/05/01 01:06:49;;;;;;;0.70;0.70;;;20.80;38.30;;;24.48;25.26;102098.81;6215601;23;20382;-15
2022/05/01 01:09:16;;;;;;;0.75;0.75;;;20.80;38.30;;;24.50;25.30;102104.06;6215265;23;20012;-15
2022/05/01 01:11:43;;;;;;;0.60;0.60;;;20.80;38.30;;;24.51;25.19;102106.66;6215530;23;20095;-15
2022/05/01 01:14:10;;;;;;;1.17;0.80;;;20.80;38.30;;;24.47;25.46;102097.06;6215484;23;20330;-15
2022/05/01 01:16:44;;;;;;;0.70;0.70;;;20.70;38.30;;;24.47;25.33;102097.06;6215481;23;20009;-15
2022/05/01 01:19:11;;;;;;;0.70;0.70;;;20.80;38.30;;;24.50;25.35;102107.59;6215323;23;20099;-15
2022/05/01 01:21:39;;;;;;;0.90;0.90;;;20.70;38.30;;;24.52;25.20;102107.50;6215416;23;20009;-15
2022/05/01 01:24:11;;;;;;;0.57;0.57;;;20.80;38.30;;;24.53;25.38;102107.41;6212650;23;20436;-15
2022/05/01 01:26:39;;;;;;;0.60;0.60;;;20.80;38.30;;;24.47;25.07;102104.22;6213052;23;20087;-16
2022/05/01 01:31:50;;;;;;;0.60;0.60;;;20.80;38.30;;;24.52;25.19;102112.84;6215313;23;20016;-15
2022/05/01 01:34:19;;;;;;;0.73;0.73;;;20.70;38.30;;;24.51;25.42;102111.16;6215661;23;20020;-15
2022/05/01 01:36:47;;;;;;;1.02;0.75;;;20.70;38.30;;;24.51;25.44;102117.34;6215764;23;20024;-16
2022/05/01 01:39:13;;;;;;;0.63;0.63;;;20.70;38.30;;;24.46;25.43;102100.72;6215125;23;20017;-16
2022/05/01 01:41:44;;;;;;;0.80;0.80;;;20.70;38.30;;;24.51;25.33;102120.03;6215517;23;20013;-16
2022/05/01 01:44:12;;;;;;;0.70;0.70;;;20.70;38.30;;;24.48;25.10;102111.31;6216003;23;20067;-15
2022/05/01 01:46:39;;;;;;;0.82;0.80;;;20.70;38.30;;;24.47;25.10;102107.75;6211060;23;20103;-15
2022/05/01 01:49:09;;;;;;;0.60;0.60;;;20.70;38.30;;;24.45;25.14;102111.50;6215059;23;20066;-16
2022/05/01 01:51:35;;;;;;;0.70;0.70;;;20.70;38.30;;;24.54;25.36;102129.66;6215625;23;20036;-15
2022/05/01 01:54:00;;;;;;;0.90;0.60;;;20.70;38.30;;;24.51;25.35;102122.69;6215541;23;20428;-15
2022/05/01 01:56:26;;;;;;;0.70;0.70;;;20.70;38.30;;;24.53;25.07;102123.47;6213527;23;20350;-15
2022/05/01 01:58:52;;;;;;;0.77;0.77;;;20.70;38.30;;;24.48;25.28;102108.66;6214882;23;20023;-16
2022/05/01 02:01:18;;;;;;;1.05;0.80;;;20.70;38.30;;;24.52;25.33;102121.72;6215074;23;20094;-15
2022/05/01 02:03:43;;;;;;;0.63;0.63;;;20.70;38.30;;;24.46;25.28;102110.50;6214976;23;20090;-15
2022/05/01 02:06:09;;;;;;;0.80;0.70;;;20.70;38.30;;;24.46;25.33;102108.72;6215160;23;20316;-15
2022/05/01 02:08:35;;;;;;;0.80;0.80;;;20.70;38.30;;;24.44;25.33;102112.41;6214908;23;20020;-16
2022/05/01 02:11:05;;;;;;;0.60;0.60;;;20.70;38.30;;;24.42;25.38;102102.69;6214061;23;20430;-15
2022/05/01 02:13:31;;;;;;;0.70;0.70;;;20.70;38.30;;;24.49;25.24;102116.56;6212616;23;20012;-15
2022/05/01 02:15:57;;;;;;;0.80;0.80;;;20.70;38.30;;;24.51;25.38;102119.16;6215597;23;20091;-16
2022/05/01 02:18:25;;;;;;;0.50;0.50;;;20.70;38.30;;;24.48;25.11;102117.50;6214848;23;20022;-16
2022/05/01 02:23:48;;;;;;;0.75;0.50;;;20.70;38.30;;;24.53;25.12;102122.59;6164727;23;20036;-15
2022/05/01 02:26:14;;;;;;;0.65;0.65;;;20.70;38.30;;;24.46;25.11;102106.06;6215219;23;20450;-15
2022/05/01 02:28:40;;;;;;;0.70;0.70;;;20.70;38.30;;;24.48;25.16;102112.16;6215038;23;20447;-15
2022/05/01 02:31:06;;;;;;;0.80;0.80;;;20.70;38.20;;;24.50;25.24;102115.59;6215000;23;20008;-15
2022/05/01 02:33:31;;;;;;;0.70;0.70;;;20.70;38.30;;;24.51;25.30;102125.38;6215225;23;20031;-15
2022/05/01 02:35:57;;;;;;;0.80;0.80;;;20.70;38.80;;;24.43;25.30;102108.91;6215091;23;20473;-15
2022/05/01 02:38:23;;;;;;;0.77;0.73;;;20.70;38.20;;;24.46;25.12;102113.19;6215078;23;20019;-15
2022/05/01 02:40:49;;;;;;;0.68;0.68;;;20.70;38.30;;;24.50;25.13;102117.44;6215019;23;20009;-15
2022/05/01 02:43:15;;;;;;;0.60;0.60;;;20.70;38.30;;;24.44;25.30;102099.94;6214943;23;20014;-16
2022/05/01 02:45:40;;;;;;;1.23;0.90;;;20.70;38.30;;;24.51;25.41;102124.50;6215704;23;20027;-15
2022/05/01 02:48:06;;;;;;;1.30;0.88;;;20.70;38.20;;;24.50;25.16;102120.97;6215104;23;20016;-15
2022/05/01 02:50:32;;;;;;;0.77;0.77;;;20.70;38.20;;;24.46;25.18;102118.53;6214949;23;20466;-15
2022/05/01 02:52:59;;;;;;;0.90;0.90;;;20.70;38.30;;;24.50;25.27;102126.31;6215373;23;20020;-16
2022/05/01 02:55:25;;;;;;;0.88;0.88;;;20.70;38.30;;;24.50;25.14;102123.63;6215305;23;20020;-15
2022/05/01 02:57:50;;;;;;;0.75;0.75;;;20.70;38.20;;;24.51;25.07;102114.66;6215598;23;20017;-16
2022/05/01 03:00:16;;;;;;;0.85;0.85;;;20.70;38.20;;;24.47;25.19;102109.59;6214880;23;20065;-15
2022/05/01 03:02:45;;;;;;;0.70;0.70;;;20.70;38.20;;;24.50;25.03;102107.59;6215044;23;20111;-16
2022/05/01 03:05:10;;;;;;;0.80;0.80;;;20.70;38.20;;;24.49;25.20;102097.88;6214827;23;20074;-15
2022/05/01 03:07:36;;;;;;;0.95;0.95;;;20.70;38.20;;;24.49;25.19;102097.88;6214823;23;20013;-15
2022/05/01 03:10:02;;;;;;;1.02;0.85;;;20.70;38.20;;;24.49;25.32;102105.88;6214948;23;20040;-15
2022/05/01 03:12:29;;;;;;;0.98;0.90;;;20.70;38.20;;;24.51;25.24;102109.31;6215367;23;20359;-15
2022/05/01 03:14:56;;;;;;;0.80;0.80;;;20.70;38.20;;;24.49;25.17;102108.56;6214706;23;20043;-15
2022/05/01 03:17:22;;;;;;;1.33;0.80;;;20.70;38.20;;;24.48;25.24;102105.97;6214847;23;20019;-16
2022/05/01 03:22:32;;;;;;;1.10;0.90;;;20.70;38.20;;;24.47;25.04;102102.41;6214500;23;20438;-15
2022/05/01 03:24:58;;;;;;;0.95;0.90;;;20.70;38.20;;;24.46;25.27;102102.50;6214857;23;20015;-15
2022/05/01 03:27:24;;;;;;;1.00;0.85;;;20.70;38.20;;;24.45;25.06;102093.63;6214492;23;20009;-16
2022/05/01 03:32:35;;;;;;;1.13;0.90;;;20.70;38.30;;;24.44;25.08;102097.28;6215078;23;20012;-15
2022/05/01 03:35:02;;;;;;;0.70;0.70;;;20.70;38.20;;;24.44;25.34;102097.28;6215107;23;20012;-15
2022/05/01 03:37:29;;;;;;;0.70;0.70;;;20.70;38.20;;;24.47;25.10;102099.75;6215025;23;20012;-16
2022/05/01 03:39:55;;;;;;;0.88;0.70;;;20.70;38.20;;;24.45;25.23;102096.28;6215021;23;20013;-15
2022/05/01 03:42:20;;;;;;;0.95;0.90;;;20.70;38.20;;;24.45;25.20;102095.44;6214616;23;20016;-15
2022/05/01 03:44:46;;;;;;;0.77;0.77;;;20.70;38.20;;;24.43;25.01;102092.84;6215152;23;20028;-15
2022/05/01 03:47:12;;;;;;;0.70;0.70;;;20.70;38.20;;;24.46;25.10;102108.72;6214587;23;20019;-16
2022/05/01 03:49:37;;;;;;;1.30;0.90;;;20.70;38.20;;;24.42;25.02;102102.69;6211386;23;20016;-16
2022/05/01 03:52:04;;;;;;;0.70;0.70;;;20.70;38.20;;;24.49;25.10;102107.66;6214621;23;20024;-16
2022/05/01 03:54:29;;;;;;;0.70;0.70;;;20.70;38.20;;;24.46;25.09;102105.16;6214433;23;20024;-16
2022/05/01 03:56:55;;;;;;;0.70;0.70;;;20.70;38.20;;;24.44;25.32;102101.72;6214678;23;20335;-16
2022/05/01 03:59:21;;;;;;;1.13;0.82;;;20.70;38.20;;;24.43;25.10;102095.53;6214468;23;20308;-16
2022/05/01 04:01:46;;;;;;;1.35;0.93;;;20.70;38.20;;;24.39;25.16;102092.19;6214348;23;20442;-16
2022/05/01 04:04:13;;;;;;;0.73;0.73;;;20.70;38.20;;;24.49;25.28;102107.66;6238101;23;20450;-16
2022/05/01 04:06:40;;;;;;;1.30;1.02;;;20.70;38.20;;;24.46;25.26;102097.16;6214727;23;20091;-16
2022/05/01 04:09:06;;;;;;;0.77;0.77;;;20.70;38.30;;;24.46;25.36;102100.72;6214376;23;20023;-16
2022/05/01 04:11:32;;;;;;;0.80;0.80;;;20.70;38.20;;;24.43;25.24;102095.53;6215004;23;20017;-16
2022/05/01 04:13:58;;;;;;;1.00;0.77;;;20.70;38.20;;;24.43;25.22;102095.53;6215129;23;20088;-16
2022/05/01 04:16:24;;;;;;;0.90;0.90;;;20.70;38.20;;;24.47;25.11;102104.22;6214273;23;20034;-16
2022/05/01 04:18:50;;;;;;;0.73;0.73;;;20.70;38.20;;;24.49;25.04;102111.22;6214516;23;20342;-16
2022/05/01 04:21:16;;;;;;;0.98;0.90;;;20.70;38.20;;;24.45;25.29;102100.78;6214283;23;20009;-16
2022/05/01 04:23:42;;;;;;;0.85;0.80;;;20.70;38.20;;;24.49;25.17;102115.69;6214334;23;20304;-16
2022/05/01 04:26:07;;;;;;;1.15;1.08;;;20.70;38.20;;;24.49;25.12;102115.69;6214766;23;20308;-16
2022/05/01 04:28:33;;;;;;;1.25;1.15;;;20.70;38.20;;;24.45;25.14;102100.78;6214094;23;20338;-16
2022/05/01 04:30:59;;;;;;;1.08;0.90;;;20.70;38.20;;;24.43;25.15;102098.19;6215694;23;20067;-16
2022/05/01 04:33:25;;;;;;;0.70;0.68;;;20.70;38.20;;;24.48;25.20;102105.97;6216216;23;20012;-16
2022/05/01 04:35:51;;;;;;;1.05;0.85;;;20.70;38.20;;;24.50;25.07;102112.94;6215753;23;20450;-16
2022/05/01 04:38:23;;;;;;;0.70;0.70;;;20.70;38.20;;;24.45;25.07;102103.47;6216020;23;20017;-16
2022/05/01 04:40:58;;;;;;;1.00;0.90;;;20.70;38.20;;;24.47;25.25;102110.44;6216047;23;20013;-16
2022/05/01 04:43:26;;;;;;;1.05;0.80;;;20.70;38.20;;;24.45;25.29;102103.47;6214264;23;20036;-16
2022/05/01 04:45:54;;;;;;;0.90;0.90;;;20.70;38.10;;;24.42;25.11;102104.50;6215745;23;20446;-16
2022/05/01 04:48:22;;;;;;;0.80;0.80;;;20.70;38.10;;;24.44;25.03;102107.97;6215905;23;20088;-16
2022/05/01 04:50:48;;;;;;;0.93;0.93;;;20.70;38.10;;;24.46;25.12;102113.19;6215655;23;20008;-16
2022/05/01 04:53:17;;;;;;;0.95;0.90;;;20.70;38.10;;;24.48;25.00;102122.88;6215599;23;20435;-16
2022/05/01 04:55:46;;;;;;;0.70;0.70;;;20.70;38.20;;;24.44;25.23;102117.78;6215899;23;20016;-16
2022/05/01 04:58:16;;;;;;;0.95;0.95;;;20.70;38.10;;;24.50;25.01;102123.63;6216102;23;20430;-16
2022/05/01 05:00:44;;;;;;;1.00;0.90;;;20.70;38.10;;;24.45;25.14;102117.69;6215478;23;20190;-16
2022/05/01 05:03:10;;;;;;;1.10;1.00;;;20.70;38.10;;;24.47;25.26;102121.13;6215338;23;20335;-16
2022/05/01 05:05:36;;;;;;;0.80;0.80;;;20.70;38.20;;;24.50;25.18;102122.78;6215610;23;20055;-16
2022/05/01 05:10:48;;;;;;;1.85;0.90;;;20.70;38.10;;;24.52;25.31;102132.41;6215800;23;20013;-16
2022/05/01 05:13:20;;;;;;;1.00;1.00;;;20.70;38.00;;;24.54;25.14;102130.53;6215825;23;20019;-16
2022/05/01 05:15:47;;;;;;;1.00;0.90;;;20.80;38.00;;;24.56;25.21;102126.00;6215508;23;20019;-16
2022/05/01 05:18:14;;;;;;;0.77;0.77;;;20.80;38.00;;;24.59;24.98;102128.50;6215427;23;20466;-16
2022/05/01 05:20:40;;;;;;;1.15;0.80;;;20.90;38.00;;;24.67;25.17;102127.19;6215387;23;20019;-16
2022/05/01 05:23:05;;;;;;;1.10;1.00;;;21.00;37.80;;;24.75;24.90;102131.13;6215390;23;20034;-16
2022/05/01 05:25:31;;;;;;;1.58;1.00;;;21.00;37.70;;;24.79;24.86;102126.47;6215415;23;20446;-16
2022/05/01 05:27:57;;;;;;;0.95;0.80;;;21.10;37.60;;;24.86;24.83;102135.00;6215123;23;20009;-16
2022/05/01 05:30:23;;;;;;;0.85;0.82;;;21.20;37.50;;;24.88;24.89;102120.59;6215377;23;20308;-15
2022/05/01 05:32:49;;;;;;;1.05;0.75;;;21.30;37.40;;;24.99;24.84;102138.66;6215688;23;20009;-15
2022/05/01 05:35:15;;;;;;;0.85;0.85;;;21.30;37.30;;;25.02;24.73;102125.09;6215637;23;20371;-15
2022/05/01 05:37:41;;;;;;;0.90;0.90;;;21.40;37.20;;;25.11;24.69;102134.44;6215777;23;20087;-16
2022/05/01 05:40:07;;;;;;;1.00;0.80;;;21.50;37.20;;;25.14;24.54;102129.75;6215779;23;20013;-16
2022/05/01 05:42:33;;;;;;;1.13;1.00;;;21.50;37.00;;;25.15;24.60;102122.56;6215261;23;20023;-16
2022/05/01 05:45:00;;;;;;;1.00;0.90;;;21.60;37.00;;;25.23;24.48;102120.31;6215336;23;20008;-16
2022/05/01 05:47:26;;;;;;;1.05;0.95;;;21.70;36.90;;;25.35;24.65;102128.59;6215232;23;20330;-16
2022/05/01 05:49:52;;;;;;;1.75;0.90;;;21.70;36.80;;;25.40;24.49;102134.50;6215591;23;20004;-16
2022/05/01 05:52:17;;;;;;;0.90;0.90;;;21.80;36.80;;;25.42;24.36;102133.44;6215215;23;20012;-16
2022/05/01 05:54:43;;;;;;;1.05;0.95;;;21.80;36.70;;;25.45;24.27;102129.75;6215417;23;20012;-16
2022/05/01 05:57:09;;;;;;;1.10;0.80;;;21.80;36.70;;;25.56;24.37;102139.78;6215303;23;20040;-16
2022/05/01 05:59:36;;;;;;;1.15;0.98;;;21.90;36.70;;;25.55;24.26;102133.56;6215064;23;20021;-16
2022/05/01 06:02:03;;;;;;;1.15;0.90;;;21.90;36.60;;;25.58;24.19;102124.50;6215065;23;20016;-16
2022/05/01 06:04:29;;;;;;;1.02;0.93;;;21.90;36.60;;;25.64;24.20;102135.69;6215350;23;20047;-16
2022/05/01 06:06:55;;;;;;;1.13;1.00;;;21.90;36.60;;;25.63;24.18;102128.59;6215224;23;20012;-16
2022/05/01 06:09:20;;;;;;;0.82;0.82;;;21.90;36.60;;;25.72;24.17;102131.66;6214960;23;20465;-16
2022/05/01 06:11:47;;;;;;;0.80;0.80;;;22.00;36.50;;;25.78;24.19;102139.34;6215292;23;20439;-15
2022/05/01 06:14:13;;;;;;;2.20;1.00;;;22.00;36.50;;;25.82;24.13;102136.34;6215600;23;20136;-15
2022/05/01 06:16:39;;;;;;;1.00;0.90;;;22.10;36.50;;;25.85;23.96;102133.47;6215010;23;20017;-15
2022/05/01 06:19:05;;;;;;;1.77;0.98;;;22.10;36.40;;;25.92;23.88;102135.78;6215089;23;20008;-16
2022/05/01 06:21:31;;;;;;;1.05;0.95;;;22.10;36.40;;;25.96;23.86;102135.53;6214849;23;20017;-16
2022/05/01 06:23:57;;;;;;;0.65;0.65;;;22.20;36.30;;;26.05;23.97;102140.28;6215388;23;20335;-16
2022/05/01 06:26:23;;;;;;;1.10;1.00;;;22.20;36.20;;;26.03;23.85;102134.16;6214987;23;20016;-16
2022/05/01 06:28:49;;;;;;;0.85;0.82;;;22.20;36.20;;;26.12;23.76;102148.78;6215397;23;20327;-16
2022/05/01 06:31:16;;;;;;;0.93;0.93;;;22.30;36.30;;;26.16;23.67;102146.78;6214860;23;20039;-15
2022/05/01 06:33:43;;;;;;;0.80;0.80;;;22.30;36.20;;;26.20;23.76;102149.16;6215757;23;20039;-16
2022/05/01 06:36:09;;;;;;;0.90;0.80;;;22.30;36.20;;;26.22;23.59;102151.75;6213549;23;20020;-16
2022/05/01 06:38:35;;;;;;;1.25;1.13;;;22.30;36.10;;;26.27;23.46;102149.63;6215537;23;20391;-16
2022/05/01 06:41:04;;;;;;;1.05;0.95;;;22.30;36.10;;;26.28;23.64;102146.00;6213406;23;20020;-16
2022/05/01 06:43:31;;;;;;;1.00;0.80;;;22.40;36.10;;;26.31;23.52;102147.59;6215322;23;20395;-16
2022/05/01 06:45:57;;;;;;;0.80;0.80;;;22.40;36.10;;;26.31;23.40;102136.88;6215086;23;20473;-16
2022/05/01 06:48:23;;;;;;;0.90;0.90;;;22.40;36.10;;;26.40;23.44;102144.34;6215270;23;20015;-16
2022/05/01 06:50:49;;;;;;;0.70;0.70;;;22.40;36.10;;;26.36;23.38;102129.41;6214376;23;20004;-16
2022/05/01 06:53:15;;;;;;;0.88;0.80;;;22.40;36.00;;;26.46;23.42;102140.38;6215724;23;20016;-16
2022/05/01 06:55:41;;;;;;;0.82;0.80;;;22.50;36.00;;;26.45;23.33;102136.84;6215311;23;20020;-16
2022/05/01 06:58:07;;;;;;;0.90;0.85;;;22.50;36.00;;;26.52;23.27;102137.31;6215016;23;20446;-16
2022/05/01 07:00:33;;;;;;;0.75;0.75;;;22.50;36.00;;;26.54;23.50;102130.03;6214873;23;20035;-16
2022/05/01 07:02:59;;;;;;;1.10;1.00;;;22.50;36.00;;;26.54;23.40;102132.72;6214934;23;20048;-16
2022/05/01 07:05:25;;;;;;;1.00;1.00;;;22.60;36.00;;;26.54;23.21;102135.38;6214944;23;20338;-16
2022/05/01 07:07:51;;;;;;;1.10;0.98;;;22.60;35.90;;;26.61;23.31;102142.94;6215041;23;20020;-17
2022/05/01 07:10:18;;;;;;;0.80;0.80;;;22.60;35.90;;;26.60;23.21;102132.31;6215339;23;20020;-16
2022/05/01 07:12:44;;;;;;;1.02;0.95;;;22.60;35.90;;;26.55;23.28;102131.75;6214925;23;20387;-16
2022/05/01 07:15:10;;;;;;;0.90;0.70;;;22.50;36.00;;;26.53;23.36;102133.66;6213684;23;20009;-16
2022/05/01 07:17:36;;;;;;;0.73;0.73;;;22.50;36.00;;;26.55;23.30;102140.66;6214837;23;20120;-16
2022/05/01 07:20:03;;;;;;;1.00;0.70;;;22.50;36.00;;;26.50;23.29;102132.06;6214646;23;20024;-16
2022/05/01 07:22:29;;;;;;;0.80;0.80;;;22.50;36.00;;;26.51;23.21;102131.06;6215218;23;20359;-16
2022/05/01 07:24:55;;;;;;;0.90;0.90;;;22.50;35.90;;;26.57;23.36;102138.72;6214881;23;20015;-16
2022/05/01 07:27:21;;;;;;;0.98;0.88;;;22.50;36.00;;;26.60;23.06;102145.72;6214730;23;20123;-16
2022/05/01 07:29:47;;;;;;;1.00;0.90;;;22.50;36.00;;;26.62;23.17;102151.84;6214532;23;20017;-16
2022/05/01 07:32:13;;;;;;;0.88;0.88;;;22.60;36.00;;;26.53;23.22;102141.69;6214802;23;20095;-16
2022/05/01 07:34:39;;;;;;;1.23;0.90;;;22.60;35.90;;;26.63;23.46;102150.91;6214853;23;20020;-16
2022/05/01 07:37:05;;;;;;;1.08;0.98;;;22.60;35.90;;;26.60;23.33;102143.88;6215071;23;20098;-16
2022/05/01 07:39:31;;;;;;;0.85;0.77;;;22.60;35.90;;;26.60;23.25;102143.03;6215247;23;20024;-16
2022/05/01 07:41:57;;;;;;;0.73;0.70;;;22.60;35.90;;;26.64;23.27;102146.41;6214758;23;20035;-16
2022/05/01 07:44:23;;;;;;;0.80;0.80;;;22.60;35.80;;;26.71;23.16;102156.63;6213364;23;20442;-16
2022/05/01 07:46:51;;;;;;;0.70;0.70;;;22.60;36.30;;;26.72;23.12;102147.63;6214659;23;20596;-16
2022/05/01 07:49:17;;;;;;;0.75;0.75;;;22.70;35.80;;;26.66;23.24;102147.16;6214254;23;20020;-16
2022/05/01 07:51:43;;;;;;;1.15;0.90;;;22.70;35.80;;;26.67;23.21;102143.53;6215027;23;20047;-16
2022/05/01 07:54:09;;;;;;;1.23;1.08;;;22.70;35.80;;;26.73;23.14;102152.03;6214941;23;20068;-16
2022/05/01 07:56:35;;;;;;;0.93;0.90;;;22.70;35.80;;;26.71;23.22;102139.66;6215068;23;20024;-16
2022/05/01 07:59:02;;;;;;;1.10;1.00;;;22.70;35.80;;;26.69;23.00;102144.28;6214303;23;20083;-16
2022/05/01 08:01:28;;;;;;;0.80;0.80;;;22.70;35.80;;;26.64;23.08;102141.03;6215218;23;20016;-16
2022/05/01 08:06:39;;;;;;;0.80;0.80;;;22.60;35.90;;;26.69;23.17;102147.81;6216136;23;20017;-16
2022/05/01 08:09:05;;;;;;;0.80;0.80;;;22.60;35.80;;;26.73;22.99;102153.84;6215447;23;20095;-16
2022/05/01 08:11:31;;;;;;;1.00;0.93;;;22.70;35.80;;;26.73;23.07;102152.03;6215718;23;20402;-16
2022/05/01 08:13:57;;;;;;;0.88;0.88;;;22.70;35.80;;;26.72;23.07;102142.25;6215662;23;20095;-16
2022/05/01 08:16:24;;;;;;;0.82;0.82;;;22.70;35.80;;;26.78;22.96;102157.06;6215726;23;20095;-16
2022/05/01 08:21:36;;;;;;;0.75;0.70;;;22.70;35.80;;;26.76;23.01;102143.78;6212955;23;20434;-16
2022/05/01 08:24:04;;;;;;;1.00;0.90;;;22.70;35.80;;;26.79;22.92;102145.38;6216043;23;20025;-16
2022/05/01 08:26:33;;;;;;;0.90;0.90;;;22.70;35.80;;;26.80;22.87;102149.78;6215674;23;20051;-16
2022/05/01 08:29:00;;;;;;;1.10;1.00;;;22.70;35.90;;;26.75;23.13;102143.88;6215391;23;20091;-16
2022/05/01 08:31:27;;;;;;;0.80;0.80;;;22.60;35.90;;;26.72;23.04;102142.25;6215672;23;20012;-16
2022/05/01 08:33:56;;;;;;;0.80;0.80;;;22.60;35.90;;;26.74;22.92;102148.38;6215491;23;20131;-16
2022/05/01 08:36:22;;;;;;;1.08;0.98;;;22.60;35.90;;;26.68;23.06;102139.84;6215765;23;20016;-17
2022/05/01 08:38:47;;;;;;;0.85;0.70;;;22.50;36.00;;;26.69;23.11;102144.28;6215470;23;20017;-16
2022/05/01 08:41:13;;;;;;;0.90;0.80;;;22.50;36.00;;;26.69;23.02;102147.81;6215560;23;20016;-16
2022/05/01 08:43:39;;;;;;;1.15;1.00;;;22.50;36.10;;;26.62;23.19;102141.09;6215961;23;20036;-16
2022/05/01 08:46:12;;;;;;;0.82;0.82;;;22.50;36.10;;;26.66;23.01;102150.69;6216259;23;20016;-16
2022/05/01 08:49:06;;;;;;;0.90;0.90;;;22.50;36.10;;;26.59;23.20;102144.00;6213721;23;20028;-16
2022/05/01 08:51:41;;;;;;;0.90;0.90;;;22.40;36.10;;;26.53;23.08;102139.91;6213103;23;20038;-16
2022/05/01 08:54:16;;;;;;;1.13;1.02;;;22.40;36.30;;;26.43;23.32;102133.41;6213761;23;20013;-16
2022/05/01 08:56:44;;;;;;;1.15;1.05;;;22.40;36.20;;;26.47;23.12;102132.25;6213859;23;20013;-16
2022/05/01 08:59:14;;;;;;;1.10;1.00;;;22.40;36.80;;;26.46;23.33;102135.88;6186772;23;20009;-16
2022/05/01 09:01:43;;;;;;;0.88;0.82;;;22.30;36.30;;;26.47;23.46;102144.81;6185536;23;20016;-16
2022/05/01 09:04:14;;;;;;;0.80;0.80;;;22.30;36.40;;;26.42;23.28;102150.47;6185441;23;20009;-16
2022/05/01 09:06:43;;;;;;;0.80;0.80;;;22.30;36.40;;;26.35;23.36;102138.44;6185485;23;20067;-16
2022/05/01 09:09:17;;;;;;;1.15;1.02;;;22.30;36.40;;;26.36;23.50;102137.44;6185257;23;20013;-16
2022/05/01 09:14:28;;;;;;;1.00;0.90;;;22.20;36.50;;;26.34;23.33;102139.38;6185105;23;20021;-19
2022/05/01 09:17:10;;;;;;;0.93;0.90;;;22.20;36.50;;;26.30;23.51;102137.88;6185921;23;20017;-16
2022/05/01 09:19:36;;;;;;;0.90;0.90;;;22.20;36.50;;;26.24;23.44;102133.75;6185290;23;20092;-16
2022/05/01 09:22:02;;;;;;;0.70;0.70;;;22.20;36.60;;;26.27;23.49;102135.38;6185352;23;20016;-16
2022/05/01 09:24:29;;;;;;;1.05;0.80;;;22.20;36.60;;;26.25;23.48;102140.84;6185352;23;21237;-16
2022/05/01 09:26:57;;;;;;;1.10;1.00;;;22.20;36.60;;;26.22;23.41;102136.53;6185706;23;20012;-16
2022/05/01 09:29:26;;;;;;;1.02;0.95;;;22.10;36.60;;;26.15;23.55;102129.00;6185230;23;20375;-16
2022/05/01 09:31:53;;;;;;;0.90;0.90;;;22.10;36.60;;;26.13;23.58;102128.19;6185366;23;20052;-16
2022/05/01 09:34:23;;;;;;;0.88;0.88;;;22.10;37.20;;;26.17;23.66;102138.63;6185367;23;20096;-16
2022/05/01 09:36:50;;;;;;;1.00;1.00;;;22.10;36.70;;;26.11;23.55;102122.97;6185822;23;20009;-16
2022/05/01 09:39:33;;;;;;;0.90;0.70;;;22.10;36.70;;;26.09;23.59;102126.69;6185236;23;20075;-16
2022/05/01 09:42:18;;;;;;;0.93;0.80;;;22.10;36.70;;;26.07;23.54;102130.31;6185964;23;20013;-16
2022/05/01 09:45:03;;;;;;;1.30;0.98;;;22.10;36.70;;;26.04;23.84;102117.13;6185154;23;20091;-16
2022/05/01 09:47:40;;;;;;;1.00;0.90;;;22.10;36.80;;;26.09;23.78;102130.22;6185240;23;20017;-16
2022/05/01 09:50:08;;;;;;;0.90;0.90;;;22.10;37.30;;;26.09;23.71;102127.53;6185604;23;20008;-16
2022/05/01 09:52:54;;;;;;;0.90;0.90;;;22.10;36.80;;;26.03;23.81;102120.78;6185730;23;20371;-16
2022/05/01 09:55:20;;;;;;;0.98;0.88;;;22.00;36.80;;;26.04;23.68;102113.56;6186007;23;20013;-16
2022/05/01 09:57:46;;;;;;;0.80;0.80;;;22.00;36.70;;;26.07;23.69;102119.59;6185305;23;20084;-16
2022/05/01 10:00:13;;;;;;;0.95;0.80;;;22.00;36.80;;;26.06;23.84;102117.00;6185777;23;20017;-16
2022/05/01 10:02:38;;;;;;;0.85;0.85;;;22.00;36.80;;;26.08;23.67;102120.47;6185544;23;20009;-16
2022/05/01 10:05:08;;;;;;;0.80;0.80;;;22.00;36.70;;;26.05;23.71;102120.66;6183643;23;20020;-16
2022/05/01 10:07:37;;;;;;;0.60;0.60;;;22.00;36.90;;;26.03;23.90;102123.44;6185418;23;20099;-16
2022/05/01 10:10:08;;;;;;;0.90;0.90;;;22.10;36.90;;;25.97;23.56;102109.56;6185557;23;20447;-16
2022/05/01 10:12:41;;;;;;;0.93;0.88;;;22.00;36.80;;;26.06;23.58;102125.06;6184053;23;20501;-16
2022/05/01 10:15:09;;;;;;;1.00;0.90;;;22.00;36.80;;;26.09;23.69;102122.19;6185627;23;20021;-16
2022/05/01 10:17:35;;;;;;;1.10;1.00;;;22.00;36.80;;;26.04;23.65;102114.47;6185172;23;20092;-16
2022/05/01 10:20:03;;;;;;;1.27;1.15;;;22.00;36.80;;;26.07;23.72;102116.06;6185060;23;20021;-16
2022/05/01 10:22:31;;;;;;;0.95;0.88;;;22.00;36.80;;;26.07;23.78;102121.44;6185434;23;20013;-16
2022/05/01 10:24:56;;;;;;;1.10;1.00;;;22.10;36.80;;;26.03;23.85;102115.41;6185793;23;20013;-16
2022/05/01 10:27:44;;;;;;;0.98;0.90;;;22.10;36.80;;;26.05;23.82;102118.84;6184933;23;20024;-18
2022/05/01 10:33:44;;;;;;;0.80;0.80;;;22.00;36.80;;;26.02;23.71;102115.50;6213883;23;20019;-17
2022/05/01 10:36:15;;;;;;;1.05;0.95;;;22.00;36.90;;;26.01;23.83;102116.44;6213627;23;20008;-17
2022/05/01 10:39:11;;;;;;;1.60;1.23;;;22.00;36.90;;;25.95;23.94;102092.72;6185567;23;20017;-17
2022/05/01 10:41:44;;;;;;;0.82;0.82;;;22.00;36.90;;;26.00;23.90;102110.25;6184966;23;20021;-17